Погода Западная Звездана неделю

Тульская область, Россия

14 - 20 июля
  • 14июля
    Сегодня
    +20°
    +31°
    Небольшая облачность, ливень
    ВремяПогодаТемператураВлажностьДавлениеВетер, м/сВероятность осадков
    00:00Ясно и безоблачно+22°C77 %744 мм0.7 м/с2 %
    03:00Ясно и безоблачно+20°C90 %744 мм1.1 м/с2 %
    06:00Ясно и безоблачно+22°C84 %744 мм1.1 м/с2 %
    09:00Ясно и безоблачно+28°C61 %744 мм1.5 м/с2 %
    12:00Ясно и безоблачно+30°C47 %744 мм2.6 м/с2 %
    15:00Небольшая облачность, ливень+30°C70 %744 мм2.5 м/с23 %
    18:00Облачно с прояснениями+31°C57 %744 мм2.3 м/с40 %
    21:00Небольшая облачность+27°C69 %744 мм1.5 м/с7 %
  • 15июля
    Понедельник
    +19°
    +30°
    Ясно и безоблачно
    ВремяПогодаТемператураВлажностьДавлениеВетер, м/сВероятность осадков
    00:00Практически безоблачно+24°C78 %743 мм1.3 м/с2 %
    03:00Ясно и безоблачно+21°C85 %744 мм1.4 м/с2 %
    06:00Ясно и безоблачно+21°C86 %744 мм1.5 м/с2 %
    09:00Ясно и безоблачно+26°C61 %744 мм2.3 м/с3 %
    12:00Ясно и безоблачно+28°C45 %745 мм3.3 м/с10 %
    15:00Ясно и безоблачно+30°C43 %744 мм2.9 м/с7 %
    18:00Ясно и безоблачно+30°C44 %744 мм2.5 м/с9 %
    21:00Облачно с прояснениями+26°C58 %745 мм1.4 м/с5 %
  • 16июля
    Вторник
    +20°
    +32°
    Практически безоблачно
    ВремяПогодаТемператураВлажностьДавлениеВетер, м/сВероятность осадков
    00:00Практически безоблачно+22°C78 %745 мм0.8 м/с2 %
    03:00Ясно и безоблачно+20°C83 %745 мм0.6 м/с2 %
    06:00Ясно и безоблачно+21°C85 %745 мм0.3 м/с2 %
    09:00Ясно и безоблачно+27°C57 %745 мм0.7 м/с2 %
    12:00Практически безоблачно+28°C47 %745 мм1.4 м/с14 %
    15:00Практически безоблачно+31°C45 %745 мм1.2 м/с10 %
    18:00Практически безоблачно+31°C45 %745 мм1.9 м/с26 %
    21:00Ясно и безоблачно+27°C65 %745 мм1.2 м/с9 %
  • 17июля
    Среда
    +19°
    +32°
    Ясно и безоблачно
    ВремяПогодаТемператураВлажностьДавлениеВетер, м/сВероятность осадков
    00:00Ясно и безоблачно+24°C68 %745 мм1.1 м/с2 %
    03:00Ясно и безоблачно+21°C83 %745 мм0.7 м/с2 %
    06:00Ясно и безоблачно+22°C81 %746 мм0.9 м/с2 %
    09:00Ясно и безоблачно+26°C64 %746 мм1.4 м/с3 %
    12:00Практически безоблачно+29°C47 %746 мм2.6 м/с27 %
    15:00Ясно и безоблачно+32°C41 %746 мм2.5 м/с13 %
    18:00Практически безоблачно+31°C38 %745 мм2.2 м/с14 %
    21:00Облачно с прояснениями+27°C52 %746 мм1.1 м/с3 %
Мы используем cookies
Соглашаюсь